Time;durP1;ratioP1;P1;durP2;ratioP2;P2;SDS_P1;SDS_P2;PMS_P1;PMS_P2;Temp;Humidity;BMP_temperature;BMP_pressure;BME280_temperature;BME280_humidity;BME280_pressure;Samples;Min_cycle;Max_cycle;Signal;HPM_P1;HPM_P2
2021/11/29 00:01:29;;;;;;;4.32;1.40;;;2.50;99.90;;;;;;5112749;28;20035;-72
2021/11/29 00:03:55;;;;;;;8.05;1.35;;;2.50;99.90;;;;;;5114078;28;20036;-72
2021/11/29 00:06:21;;;;;;;12.18;1.42;;;2.50;99.90;;;;;;5113801;28;20384;-72
2021/11/29 00:08:48;;;;;;;4.68;1.15;;;2.50;99.90;;;;;;5113416;28;20508;-72
2021/11/29 00:11:14;;;;;;;2.65;0.70;;;2.50;99.90;;;;;;5113986;28;20506;-72
2021/11/29 00:13:40;;;;;;;3.95;1.58;;;2.40;99.90;;;;;;5113566;28;20381;-72
2021/11/29 00:16:06;;;;;;;7.65;0.90;;;2.50;99.90;;;;;;5113332;28;20039;-72
2021/11/29 00:18:32;;;;;;;4.03;1.40;;;2.50;99.90;;;;;;5113705;28;20040;-72
2021/11/29 00:20:58;;;;;;;5.30;0.95;;;2.40;99.90;;;;;;5113426;28;20031;-72
2021/11/29 00:23:24;;;;;;;6.55;1.33;;;2.40;99.90;;;;;;5113550;28;20493;-72
2021/11/29 00:25:49;;;;;;;3.30;1.58;;;2.40;99.90;;;;;;5113015;28;20032;-72
2021/11/29 00:28:16;;;;;;;5.97;1.20;;;2.40;99.90;;;;;;5113750;28;20088;-72
2021/11/29 00:30:43;;;;;;;3.75;1.08;;;2.40;99.90;;;;;;5114331;28;20094;-72
2021/11/29 00:33:10;;;;;;;3.40;1.55;;;2.40;99.90;;;;;;5117391;28;20107;-72
2021/11/29 00:35:37;;;;;;;2.15;0.90;;;2.30;99.90;;;;;;5117022;28;20092;-72
2021/11/29 00:38:04;;;;;;;3.70;1.10;;;2.40;99.90;;;;;;5117521;28;20047;-72
2021/11/29 00:40:30;;;;;;;5.20;1.20;;;2.40;99.90;;;;;;5116152;28;20039;-72
2021/11/29 00:42:56;;;;;;;5.30;1.00;;;2.30;99.90;;;;;;5117144;28;20119;-72
2021/11/29 00:45:21;;;;;;;7.68;2.17;;;2.30;99.90;;;;;;5117711;28;20119;-72
2021/11/29 00:47:47;;;;;;;3.97;1.33;;;2.30;99.90;;;;;;5115608;28;20040;-72
2021/11/29 00:50:13;;;;;;;5.65;0.90;;;2.30;99.90;;;;;;5117136;28;20036;-72
2021/11/29 00:52:41;;;;;;;6.45;1.10;;;2.40;99.90;;;;;;5117236;28;20042;-72
2021/11/29 00:55:07;;;;;;;4.80;2.03;;;2.50;99.90;;;;;;5117352;28;20052;-72
2021/11/29 00:57:33;;;;;;;9.93;1.25;;;2.70;99.90;;;;;;5115364;28;20036;-72
2021/11/29 00:59:58;;;;;;;5.15;1.23;;;2.70;99.90;;;;;;5116837;28;20108;-72
2021/11/29 01:02:24;;;;;;;6.65;1.20;;;2.70;99.90;;;;;;5116994;28;20035;-72
2021/11/29 01:04:50;;;;;;;4.93;1.05;;;2.70;99.90;;;;;;5116885;28;20051;-72
2021/11/29 01:07:15;;;;;;;7.22;1.50;;;2.70;99.90;;;;;;5116825;27;20419;-72
2021/11/29 01:09:41;;;;;;;9.38;1.55;;;2.70;99.90;;;;;;5116758;28;20519;-72
2021/11/29 01:12:07;;;;;;;4.32;1.13;;;2.70;99.90;;;;;;5116851;28;20481;-72
2021/11/29 01:14:33;;;;;;;2.05;0.73;;;2.70;99.90;;;;;;5115831;28;20476;-72
2021/11/29 01:16:59;;;;;;;7.65;1.20;;;2.70;99.90;;;;;;5115182;28;20121;-72
2021/11/29 01:19:25;;;;;;;5.18;1.15;;;2.80;99.90;;;;;;5116884;28;20035;-72
2021/11/29 01:21:51;;;;;;;1.77;0.93;;;2.70;99.90;;;;;;5116509;28;20036;-72
2021/11/29 01:24:16;;;;;;;5.88;1.00;;;2.80;99.90;;;;;;5116702;28;20040;-72
2021/11/29 01:26:42;;;;;;;12.32;2.60;;;2.80;99.90;;;;;;5116110;28;20031;-72
2021/11/29 01:29:07;;;;;;;5.72;0.90;;;2.80;99.90;;;;;;5115372;28;20477;-72
2021/11/29 01:31:33;;;;;;;9.73;1.25;;;2.90;99.90;;;;;;5116569;28;20039;-72
2021/11/29 01:33:59;;;;;;;7.53;0.90;;;2.90;99.90;;;;;;5116420;28;20176;-72
2021/11/29 01:36:24;;;;;;;5.18;0.90;;;3.00;99.90;;;;;;5115819;28;20040;-72
2021/11/29 01:38:50;;;;;;;2.17;0.40;;;3.10;99.90;;;;;;5115216;28;20118;-72
2021/11/29 01:41:16;;;;;;;4.25;0.60;;;3.20;99.90;;;;;;5114740;28;20492;-72
2021/11/29 01:43:43;;;;;;;1.45;0.32;;;3.30;99.90;;;;;;5115004;28;20137;-72
2021/11/29 01:46:09;;;;;;;1.52;0.40;;;3.40;99.90;;;;;;5115707;28;20052;-72
2021/11/29 01:48:35;;;;;;;2.20;0.30;;;3.40;99.90;;;;;;5115845;28;20124;-72
2021/11/29 01:51:03;;;;;;;2.20;0.40;;;3.40;99.90;;;;;;5115988;28;20093;-72
2021/11/29 01:53:31;;;;;;;1.63;0.30;;;3.40;99.90;;;;;;5116095;28;20035;-72
2021/11/29 01:55:58;;;;;;;1.00;0.35;;;3.40;99.90;;;;;;5115495;28;20330;-73
2021/11/29 01:58:36;;;;;;;4.10;0.30;;;3.40;99.90;;;;;;5114955;28;20047;-72
2021/11/29 02:01:07;;;;;;;1.58;0.63;;;3.40;99.90;;;;;;5115965;27;20047;-72
2021/11/29 02:03:34;;;;;;;1.20;0.20;;;3.30;99.90;;;;;;5115865;28;20101;-72
2021/11/29 02:05:59;;;;;;;2.92;0.17;;;3.30;99.90;;;;;;5115351;28;20110;-72
2021/11/29 02:08:25;;;;;;;2.05;0.32;;;3.20;99.90;;;;;;5115549;28;20035;-72
2021/11/29 02:10:51;;;;;;;0.25;0.25;;;3.10;99.90;;;;;;5115440;28;20032;-72
2021/11/29 02:13:18;;;;;;;0.43;0.22;;;3.10;99.90;;;;;;5115599;28;20120;-72
2021/11/29 02:15:50;;;;;;;1.65;0.28;;;3.00;99.90;;;;;;5097243;28;20051;-73
2021/11/29 02:18:16;;;;;;;1.92;0.30;;;3.00;99.90;;;;;;5115675;28;20096;-72
2021/11/29 02:20:58;;;;;;;3.65;0.65;;;3.00;99.90;;;;;;5114142;28;20051;-72
2021/11/29 02:23:24;;;;;;;2.50;0.30;;;3.00;99.90;;;;;;5115367;28;20550;-72
2021/11/29 02:25:49;;;;;;;2.28;0.20;;;3.00;99.90;;;;;;5114946;28;20031;-72
2021/11/29 02:28:20;;;;;;;2.10;0.17;;;3.00;99.90;;;;;;5115122;28;20404;-72
2021/11/29 02:30:46;;;;;;;2.25;0.30;;;3.00;99.90;;;;;;5115252;28;20031;-72
2021/11/29 02:33:11;;;;;;;1.50;0.30;;;3.00;99.90;;;;;;5115474;28;20035;-72
2021/11/29 02:35:37;;;;;;;0.45;0.30;;;3.00;99.90;;;;;;5113638;28;20455;-73
2021/11/29 02:38:05;;;;;;;2.15;0.40;;;3.00;99.90;;;;;;5115513;28;20124;-72
2021/11/29 02:40:34;;;;;;;1.90;0.30;;;3.00;99.90;;;;;;5115079;28;20031;-73
2021/11/29 02:43:00;;;;;;;2.70;0.40;;;3.00;99.90;;;;;;5115407;28;20043;-72
2021/11/29 02:45:27;;;;;;;1.55;0.43;;;2.90;99.90;;;;;;5114960;28;20081;-73
2021/11/29 02:47:53;;;;;;;3.35;0.50;;;2.90;99.90;;;;;;5114549;28;20035;-72
2021/11/29 02:50:19;;;;;;;1.17;0.40;;;2.90;99.90;;;;;;5115315;28;20495;-72
2021/11/29 02:52:45;;;;;;;5.10;0.43;;;3.00;99.90;;;;;;5114872;28;20032;-72
2021/11/29 02:55:12;;;;;;;1.45;0.20;;;3.00;99.90;;;;;;5114746;28;20036;-72
2021/11/29 02:57:38;;;;;;;2.03;0.50;;;3.00;99.90;;;;;;5114229;28;20088;-72
2021/11/29 03:00:05;;;;;;;1.88;0.68;;;3.00;99.90;;;;;;5114705;28;20122;-72
2021/11/29 03:02:32;;;;;;;1.30;0.50;;;3.00;99.90;;;;;;5114988;28;20043;-72
2021/11/29 03:04:58;;;;;;;0.60;0.25;;;2.90;99.90;;;;;;5114569;28;20039;-72
2021/11/29 03:07:24;;;;;;;2.38;0.50;;;2.90;99.90;;;;;;5114105;28;20039;-72
2021/11/29 03:09:50;;;;;;;4.70;1.25;;;2.90;99.90;;;;;;5114674;28;20599;-72
2021/11/29 03:12:15;;;;;;;6.95;0.88;;;2.90;99.90;;;;;;5114530;28;20419;-72
2021/11/29 03:14:42;;;;;;;6.90;1.15;;;3.00;99.90;;;;;;5114260;28;20127;-72
2021/11/29 03:17:10;;;;;;;5.32;0.80;;;2.90;99.90;;;;;;5113957;28;20392;-72
2021/11/29 03:19:37;;;;;;;2.05;0.50;;;3.00;99.90;;;;;;5113107;28;20078;-72
2021/11/29 03:22:06;;;;;;;4.20;0.82;;;3.00;99.90;;;;;;5114346;28;20039;-72
2021/11/29 03:24:32;;;;;;;1.75;0.63;;;3.00;99.90;;;;;;5113998;28;20467;-72
2021/11/29 03:26:58;;;;;;;2.15;0.50;;;3.00;99.90;;;;;;5113658;28;20032;-72
2021/11/29 03:29:27;;;;;;;4.25;0.80;;;3.00;99.90;;;;;;5114025;28;20043;-72
2021/11/29 03:31:54;;;;;;;1.05;0.40;;;3.00;99.90;;;;;;5114124;28;20426;-72
2021/11/29 03:34:22;;;;;;;3.88;0.70;;;3.10;99.90;;;;;;5114577;28;20469;-72
2021/11/29 03:36:48;;;;;;;1.52;0.50;;;3.10;99.90;;;;;;5113816;28;20434;-72
2021/11/29 03:39:20;;;;;;;3.17;0.60;;;3.10;99.90;;;;;;5114134;28;20031;-72
2021/11/29 03:41:46;;;;;;;5.68;0.68;;;3.10;99.90;;;;;;5113889;28;20039;-72
2021/11/29 03:44:12;;;;;;;5.03;0.60;;;3.20;99.90;;;;;;5113821;28;20048;-72
2021/11/29 03:46:38;;;;;;;6.07;0.73;;;3.20;99.90;;;;;;5113469;28;20396;-72
2021/11/29 03:49:03;;;;;;;9.60;0.93;;;3.20;99.90;;;;;;5114266;28;20039;-72
2021/11/29 03:51:29;;;;;;;3.40;0.70;;;3.20;99.90;;;;;;5114095;28;20459;-72
2021/11/29 03:53:54;;;;;;;6.63;0.93;;;3.20;99.90;;;;;;5113755;28;20534;-72
2021/11/29 03:56:20;;;;;;;7.40;0.82;;;3.20;99.90;;;;;;5113581;28;20067;-72
2021/11/29 03:58:46;;;;;;;4.68;0.73;;;3.20;99.90;;;;;;5113692;28;20501;-72
2021/11/29 04:01:12;;;;;;;3.53;0.70;;;3.20;99.90;;;;;;5112679;28;20123;-72
2021/11/29 04:03:39;;;;;;;2.70;0.68;;;3.20;99.90;;;;;;5112552;28;20466;-72
2021/11/29 04:06:05;;;;;;;5.00;1.08;;;3.20;99.90;;;;;;5114943;28;20036;-72
2021/11/29 04:08:30;;;;;;;9.20;2.47;;;3.20;99.90;;;;;;5116561;28;20043;-72
2021/11/29 04:10:56;;;;;;;2.97;0.60;;;3.20;99.90;;;;;;5117976;28;20032;-72
2021/11/29 04:13:22;;;;;;;1.85;0.55;;;3.10;99.90;;;;;;5118175;28;20037;-72
2021/11/29 04:15:47;;;;;;;2.75;0.60;;;3.10;99.90;;;;;;5116195;28;20092;-72
2021/11/29 04:18:13;;;;;;;6.32;0.95;;;3.10;99.90;;;;;;5116380;28;20119;-72
2021/11/29 04:20:38;;;;;;;4.40;1.02;;;3.10;99.90;;;;;;5117494;28;20123;-72
2021/11/29 04:23:04;;;;;;;6.75;0.82;;;3.10;99.90;;;;;;5117849;28;20027;-72
2021/11/29 04:25:38;;;;;;;3.75;1.23;;;3.10;99.90;;;;;;5117321;28;20484;-72
2021/11/29 04:28:04;;;;;;;2.85;0.90;;;3.10;99.90;;;;;;5116617;28;20037;-72
2021/11/29 04:30:30;;;;;;;6.82;1.25;;;3.10;99.90;;;;;;5117695;27;20480;-72
2021/11/29 04:32:57;;;;;;;3.75;1.30;;;3.00;99.90;;;;;;5117337;28;20110;-73
2021/11/29 04:35:25;;;;;;;3.55;0.93;;;3.00;99.90;;;;;;5117884;28;20052;-72
2021/11/29 04:37:51;;;;;;;5.15;0.88;;;3.00;99.90;;;;;;5117173;28;20487;-72
2021/11/29 04:40:17;;;;;;;2.33;0.70;;;3.00;99.90;;;;;;5117759;28;20075;-73
2021/11/29 04:42:42;;;;;;;3.78;0.88;;;3.00;99.90;;;;;;5116282;28;20041;-73
2021/11/29 04:45:09;;;;;;;3.08;1.10;;;3.10;99.90;;;;;;5116316;28;20040;-73
2021/11/29 04:47:35;;;;;;;3.60;1.02;;;3.10;99.90;;;;;;5117136;28;20047;-73
2021/11/29 04:50:00;;;;;;;2.10;0.70;;;3.00;99.90;;;;;;5117221;28;20085;-73
2021/11/29 04:52:26;;;;;;;2.28;0.73;;;3.00;99.90;;;;;;5117258;28;20431;-73
2021/11/29 04:54:52;;;;;;;1.52;0.57;;;2.90;99.90;;;;;;5117038;28;20079;-73
2021/11/29 04:57:18;;;;;;;3.90;0.68;;;2.90;99.90;;;;;;5116970;28;20039;-73
2021/11/29 04:59:43;;;;;;;1.17;0.40;;;2.80;99.90;;;;;;5117393;28;20053;-73
2021/11/29 05:02:09;;;;;;;3.33;0.77;;;2.80;99.90;;;;;;5117258;28;20036;-73
2021/11/29 05:04:35;;;;;;;3.47;0.60;;;2.80;99.90;;;;;;5116872;28;20117;-73
2021/11/29 05:07:00;;;;;;;1.38;0.40;;;2.80;99.90;;;;;;5116468;28;20039;-73
2021/11/29 05:09:26;;;;;;;1.25;0.52;;;2.80;99.90;;;;;;5115706;28;20047;-73
2021/11/29 05:11:51;;;;;;;1.92;0.50;;;2.80;99.90;;;;;;5117261;28;20044;-73
2021/11/29 05:14:17;;;;;;;0.85;0.40;;;2.70;99.90;;;;;;5116818;28;20396;-73
2021/11/29 05:16:44;;;;;;;1.15;0.50;;;2.70;99.90;;;;;;5116254;28;20043;-73
2021/11/29 05:19:10;;;;;;;1.42;0.47;;;2.70;99.90;;;;;;5116883;28;20047;-73
2021/11/29 05:21:37;;;;;;;4.07;0.65;;;2.70;99.90;;;;;;5117084;28;20038;-72
2021/11/29 05:24:03;;;;;;;1.20;0.50;;;2.60;99.90;;;;;;5116266;27;20505;-73
2021/11/29 05:26:29;;;;;;;2.28;0.50;;;2.70;99.90;;;;;;5115974;28;20050;-72
2021/11/29 05:28:57;;;;;;;1.35;0.40;;;2.70;99.90;;;;;;5116737;28;20137;-72
2021/11/29 05:31:24;;;;;;;0.63;0.40;;;2.60;99.90;;;;;;5115062;28;20110;-72
2021/11/29 05:33:52;;;;;;;0.80;0.45;;;2.60;99.90;;;;;;5116252;28;20453;-72
2021/11/29 05:36:18;;;;;;;0.90;0.40;;;2.70;99.90;;;;;;5116030;28;20528;-72
2021/11/29 05:38:44;;;;;;;0.80;0.40;;;2.60;99.90;;;;;;5116290;28;20044;-72
2021/11/29 05:41:10;;;;;;;1.15;0.40;;;2.60;99.90;;;;;;5115264;28;20377;-72
2021/11/29 05:43:36;;;;;;;0.98;0.50;;;2.60;99.90;;;;;;5116208;28;20036;-72
2021/11/29 05:46:01;;;;;;;2.10;0.98;;;2.60;99.90;;;;;;5116253;28;20092;-72
2021/11/29 05:48:29;;;;;;;1.60;1.10;;;2.60;99.90;;;;;;5115968;28;20039;-72
2021/11/29 05:50:56;;;;;;;2.08;1.13;;;2.60;99.90;;;;;;5116464;28;20130;-72
2021/11/29 05:53:22;;;;;;;2.05;0.82;;;2.50;99.90;;;;;;5114997;28;20109;-72
2021/11/29 05:55:48;;;;;;;1.48;0.93;;;2.50;99.90;;;;;;5116154;28;20048;-72
2021/11/29 05:58:13;;;;;;;2.00;0.90;;;2.50;99.90;;;;;;5115204;28;20135;-72
2021/11/29 06:00:39;;;;;;;1.45;0.68;;;2.50;99.90;;;;;;5115809;28;20036;-72
2021/11/29 06:03:05;;;;;;;2.75;0.77;;;2.50;99.90;;;;;;5115842;28;20065;-72
2021/11/29 06:05:31;;;;;;;2.13;1.33;;;2.40;99.90;;;;;;5115378;28;20429;-73
2021/11/29 06:07:57;;;;;;;2.83;0.88;;;2.40;99.90;;;;;;5114231;28;20439;-72
2021/11/29 06:10:22;;;;;;;3.75;0.80;;;2.40;99.90;;;;;;5115725;28;20107;-72
2021/11/29 06:12:48;;;;;;;1.92;0.88;;;2.40;99.90;;;;;;5115725;28;20060;-72
2021/11/29 06:15:15;;;;;;;2.67;1.23;;;2.30;99.90;;;;;;5115405;28;20092;-72
2021/11/29 06:17:42;;;;;;;3.17;1.52;;;2.30;99.90;;;;;;5114071;28;20051;-72
2021/11/29 06:20:08;;;;;;;4.03;1.17;;;2.20;99.90;;;;;;5114024;28;20507;-70
2021/11/29 06:22:34;;;;;;;9.38;2.80;;;2.20;99.90;;;;;;5115327;28;20074;-71
2021/11/29 06:25:00;;;;;;;7.30;2.65;;;2.30;99.90;;;;;;5115049;28;20067;-73
2021/11/29 06:27:25;;;;;;;7.40;3.28;;;2.30;99.90;;;;;;5115546;28;20070;-72
2021/11/29 06:29:51;;;;;;;3.95;2.55;;;2.40;99.90;;;;;;5115104;28;20446;-72
2021/11/29 06:32:18;;;;;;;4.22;2.65;;;2.40;99.90;;;;;;5113898;28;20161;-72
2021/11/29 06:34:44;;;;;;;5.60;2.67;;;2.40;99.90;;;;;;5115292;28;20405;-72
2021/11/29 06:37:10;;;;;;;4.90;2.55;;;2.50;99.90;;;;;;5113234;28;20063;-71
2021/11/29 06:39:37;;;;;;;4.45;2.67;;;2.50;99.90;;;;;;5113838;28;20040;-70
2021/11/29 06:42:05;;;;;;;5.03;2.88;;;2.40;99.90;;;;;;5115397;28;20032;-71
2021/11/29 06:44:31;;;;;;;6.15;3.53;;;2.30;99.90;;;;;;5114501;28;20088;-71
2021/11/29 06:46:56;;;;;;;9.77;3.90;;;2.20;99.90;;;;;;5113461;28;20114;-71
2021/11/29 06:49:22;;;;;;;10.65;3.97;;;2.20;99.90;;;;;;5114894;28;20039;-70
2021/11/29 06:51:48;;;;;;;5.22;2.50;;;2.10;99.90;;;;;;5115035;28;20450;-71
2021/11/29 06:54:15;;;;;;;6.50;2.38;;;2.00;99.90;;;;;;5113636;28;20055;-70
2021/11/29 06:56:40;;;;;;;4.20;2.08;;;2.00;99.90;;;;;;5114219;28;20115;-70
2021/11/29 06:59:06;;;;;;;5.07;2.40;;;2.00;99.90;;;;;;5114745;28;20119;-71
2021/11/29 07:01:32;;;;;;;4.68;2.92;;;1.90;99.90;;;;;;5114653;28;20035;-71
2021/11/29 07:03:59;;;;;;;5.40;2.30;;;1.90;99.90;;;;;;5113295;28;20039;-71
2021/11/29 07:06:25;;;;;;;4.53;2.30;;;1.80;99.90;;;;;;5112974;28;20035;-71
2021/11/29 07:08:51;;;;;;;5.28;2.90;;;1.80;99.90;;;;;;5113274;28;20050;-70
2021/11/29 07:11:17;;;;;;;8.88;3.20;;;1.80;99.90;;;;;;5114367;28;20122;-71
2021/11/29 07:13:43;;;;;;;6.28;3.88;;;1.80;99.90;;;;;;5113934;28;20067;-70
2021/11/29 07:16:09;;;;;;;8.57;3.88;;;1.80;99.90;;;;;;5114347;28;20110;-71
2021/11/29 07:18:34;;;;;;;9.85;4.43;;;1.80;99.90;;;;;;5113250;28;20039;-71
2021/11/29 07:21:00;;;;;;;8.93;3.63;;;1.80;99.90;;;;;;5113176;28;20036;-71
2021/11/29 07:23:26;;;;;;;8.23;3.97;;;1.80;99.90;;;;;;5114230;28;20043;-71
2021/11/29 07:25:51;;;;;;;6.68;3.88;;;1.80;99.90;;;;;;5113484;28;20093;-71
2021/11/29 07:28:17;;;;;;;8.02;3.38;;;1.80;99.90;;;;;;5114092;28;20610;-71
2021/11/29 07:30:42;;;;;;;7.00;3.55;;;1.80;99.90;;;;;;5114092;28;20032;-71
2021/11/29 07:33:08;;;;;;;7.82;4.47;;;1.80;99.90;;;;;;5114063;28;20039;-71
2021/11/29 07:35:34;;;;;;;4.45;2.88;;;1.80;99.90;;;;;;5114006;28;20031;-71
2021/11/29 07:38:00;;;;;;;8.02;3.92;;;1.80;99.90;;;;;;5114317;27;20040;-71
2021/11/29 07:40:28;;;;;;;8.38;3.10;;;1.80;99.90;;;;;;5112908;28;20047;-71
2021/11/29 07:43:07;;;;;;;7.72;3.63;;;1.80;99.90;;;;;;5113733;28;20511;-71
2021/11/29 07:45:33;;;;;;;7.90;3.67;;;1.80;99.90;;;;;;5113562;28;20401;-71
2021/11/29 07:47:59;;;;;;;5.82;3.25;;;1.80;99.90;;;;;;5112696;28;20035;-71
2021/11/29 07:50:27;;;;;;;4.78;2.92;;;1.70;99.90;;;;;;5113705;28;20408;-71
2021/11/29 07:52:53;;;;;;;8.63;4.97;;;1.80;99.90;;;;;;5113711;28;20046;-71
2021/11/29 07:55:24;;;;;;;9.60;3.50;;;1.80;99.90;;;;;;5112576;28;20122;-71
2021/11/29 07:57:54;;;;;;;8.07;3.25;;;1.80;99.90;;;;;;5113777;28;20042;-71
2021/11/29 08:00:23;;;;;;;5.53;2.90;;;1.70;99.90;;;;;;5113977;28;20506;-71
2021/11/29 08:02:52;;;;;;;6.97;3.90;;;1.80;99.90;;;;;;5113629;28;20080;-70
2021/11/29 08:05:20;;;;;;;7.35;3.92;;;1.90;99.90;;;;;;5113422;28;20382;-70
2021/11/29 08:07:46;;;;;;;8.48;3.78;;;1.90;99.90;;;;;;5112634;28;20047;-70
2021/11/29 08:10:11;;;;;;;10.45;4.30;;;1.90;99.90;;;;;;5113548;28;20480;-70
2021/11/29 08:12:37;;;;;;;6.30;3.78;;;2.00;99.90;;;;;;5113708;28;20032;-70
2021/11/29 08:15:03;;;;;;;9.13;4.10;;;2.00;99.90;;;;;;5113695;28;20047;-70
2021/11/29 08:17:29;;;;;;;10.38;4.20;;;2.10;99.90;;;;;;5113128;28;20100;-71
2021/11/29 08:19:55;;;;;;;5.68;3.28;;;2.10;99.90;;;;;;5113422;28;20481;-70
2021/11/29 08:22:20;;;;;;;7.22;4.10;;;2.20;99.90;;;;;;5112083;28;20062;-70
2021/11/29 08:24:46;;;;;;;8.23;4.57;;;2.30;99.90;;;;;;5113620;28;20043;-71
2021/11/29 08:27:12;;;;;;;9.50;4.60;;;2.30;99.90;;;;;;5112875;28;20031;-71
2021/11/29 08:29:38;;;;;;;8.25;3.95;;;2.30;99.90;;;;;;5113451;28;20052;-70
2021/11/29 08:32:04;;;;;;;7.88;3.50;;;2.30;99.90;;;;;;5112208;28;20110;-71
2021/11/29 08:34:31;;;;;;;6.30;3.67;;;2.40;99.90;;;;;;5113467;28;20090;-71
2021/11/29 08:36:57;;;;;;;8.63;3.90;;;2.40;99.90;;;;;;5113088;28;20118;-71
2021/11/29 08:39:22;;;;;;;7.13;4.18;;;2.40;99.90;;;;;;5113385;28;20079;-70
2021/11/29 08:41:48;;;;;;;8.85;4.93;;;2.50;99.90;;;;;;5113589;28;20111;-70
2021/11/29 08:44:14;;;;;;;10.77;5.03;;;2.50;99.90;;;;;;5113314;28;20083;-71
2021/11/29 08:46:47;;;;;;;9.07;4.60;;;2.50;99.90;;;;;;5112905;28;20039;-71
2021/11/29 08:49:13;;;;;;;9.82;5.45;;;2.50;99.90;;;;;;5112411;28;20035;-71
2021/11/29 08:51:39;;;;;;;7.10;4.40;;;2.60;99.90;;;;;;5113730;28;20080;-71
2021/11/29 08:54:05;;;;;;;8.13;5.35;;;2.70;99.90;;;;;;5117266;28;20043;-70
2021/11/29 08:56:30;;;;;;;18.05;7.18;;;2.70;99.90;;;;;;5116483;28;20484;-70
2021/11/29 08:58:56;;;;;;;9.43;4.97;;;2.70;99.90;;;;;;5117243;28;20480;-70
2021/11/29 09:01:21;;;;;;;9.90;6.22;;;2.80;99.90;;;;;;5115610;28;20038;-70
2021/11/29 09:03:47;;;;;;;8.48;5.32;;;2.80;99.90;;;;;;5114951;28;20127;-70
2021/11/29 09:06:13;;;;;;;10.10;5.25;;;2.90;99.90;;;;;;5116351;28;20141;-70
2021/11/29 09:08:39;;;;;;;12.98;6.45;;;2.90;99.90;;;;;;5116795;28;20470;-70
2021/11/29 09:11:05;;;;;;;14.57;7.63;;;3.00;99.90;;;;;;5116120;28;20396;-70
2021/11/29 09:13:31;;;;;;;13.90;7.15;;;3.10;99.90;;;;;;5116643;28;20081;-69
2021/11/29 09:16:00;;;;;;;17.27;8.05;;;3.20;99.90;;;;;;5115948;27;20562;-70
2021/11/29 09:18:27;;;;;;;15.98;7.70;;;3.30;99.90;;;;;;5115334;28;20054;-70
2021/11/29 09:20:52;;;;;;;14.10;7.45;;;3.40;99.90;;;;;;5114985;28;20075;-70
2021/11/29 09:23:20;;;;;;;12.95;8.23;;;3.50;99.90;;;;;;5116827;28;20457;-69
2021/11/29 09:25:46;;;;;;;16.63;7.85;;;3.60;99.90;;;;;;5114987;28;20089;-70
2021/11/29 09:28:14;;;;;;;14.93;8.43;;;3.60;99.90;;;;;;5116621;28;20063;-70
2021/11/29 09:30:41;;;;;;;13.43;8.13;;;3.70;99.90;;;;;;5116302;28;20031;-70
2021/11/29 09:33:07;;;;;;;13.60;7.65;;;3.70;99.90;;;;;;5116151;28;20401;-71
2021/11/29 09:35:33;;;;;;;17.00;8.15;;;3.80;99.90;;;;;;5115948;28;20059;-71
2021/11/29 09:37:59;;;;;;;19.95;9.68;;;3.80;99.90;;;;;;5114884;28;20048;-71
2021/11/29 09:40:33;;;;;;;14.23;8.50;;;3.80;99.90;;;;;;5116007;27;20436;-71
2021/11/29 09:42:58;;;;;;;12.27;6.97;;;3.90;99.90;;;;;;5116113;28;20496;-71
2021/11/29 09:45:26;;;;;;;12.68;6.80;;;3.90;99.90;;;;;;5115780;28;20131;-71
2021/11/29 09:47:53;;;;;;;18.58;8.75;;;4.00;99.90;;;;;;5116048;28;20044;-71
2021/11/29 09:50:19;;;;;;;14.98;7.28;;;4.00;99.90;;;;;;5116092;27;20050;-71
2021/11/29 09:52:45;;;;;;;13.63;7.70;;;4.00;99.90;;;;;;5115962;28;20039;-71
2021/11/29 09:55:13;;;;;;;13.75;7.75;;;4.00;99.90;;;;;;5115230;28;20184;-71
2021/11/29 09:57:41;;;;;;;11.38;6.72;;;4.10;99.90;;;;;;5115353;28;20039;-71
2021/11/29 10:00:16;;;;;;;14.27;8.20;;;4.10;99.90;;;;;;5115797;28;20040;-71
2021/11/29 10:02:42;;;;;;;15.13;8.27;;;4.10;99.90;;;;;;5114154;28;20114;-69
2021/11/29 10:05:08;;;;;;;10.80;6.72;;;4.10;99.90;;;;;;5113783;28;20118;-69
2021/11/29 10:07:39;;;;;;;13.23;7.35;;;4.10;99.90;;;;;;5113948;28;20044;-70
2021/11/29 10:10:18;;;;;;;14.63;7.95;;;4.10;99.90;;;;;;5115041;28;20047;-69
2021/11/29 10:12:46;;;;;;;12.02;7.70;;;4.10;99.90;;;;;;5115442;28;20040;-69
2021/11/29 10:15:23;;;;;;;16.65;8.48;;;4.20;99.90;;;;;;5115554;28;20036;-69
2021/11/29 10:18:11;;;;;;;10.98;7.25;;;4.20;99.90;;;;;;5115123;28;20043;-70
2021/11/29 10:21:06;;;;;;;14.43;7.57;;;4.30;99.90;;;;;;5111264;28;20100;-70
2021/11/29 10:23:40;;;;;;;13.35;8.43;;;4.30;99.90;;;;;;5114251;28;20127;-70
2021/11/29 10:26:31;;;;;;;13.27;8.13;;;4.30;99.90;;;;;;5114988;28;20493;-69
2021/11/29 10:29:06;;;;;;;14.30;7.72;;;4.40;99.90;;;;;;5109118;28;20055;-69
2021/11/29 10:31:38;;;;;;;10.18;7.35;;;4.40;99.90;;;;;;5114896;28;20065;-69
2021/11/29 10:34:14;;;;;;;9.48;6.70;;;4.40;99.90;;;;;;5115337;28;20405;-70
2021/11/29 10:36:58;;;;;;;9.75;6.82;;;4.40;99.90;;;;;;5113670;28;20047;-70
2021/11/29 10:39:26;;;;;;;10.93;6.82;;;4.50;99.90;;;;;;5115404;27;20062;-70
2021/11/29 10:41:57;;;;;;;12.90;6.57;;;4.50;99.90;;;;;;5113746;28;20488;-70
2021/11/29 10:44:26;;;;;;;12.63;6.70;;;4.50;99.90;;;;;;5113498;28;20533;-70
2021/11/29 10:47:00;;;;;;;11.00;6.55;;;4.50;99.90;;;;;;5114464;27;20035;-70
2021/11/29 10:49:30;;;;;;;13.68;7.35;;;4.50;99.90;;;;;;5115310;28;20039;-70
2021/11/29 10:51:58;;;;;;;10.43;6.45;;;4.50;99.90;;;;;;5114945;28;20389;-69
2021/11/29 10:54:27;;;;;;;12.05;6.50;;;4.50;99.90;;;;;;5113813;28;20054;-69
2021/11/29 10:56:57;;;;;;;12.45;7.03;;;4.60;99.90;;;;;;5114613;28;20118;-69
2021/11/29 10:59:28;;;;;;;10.38;6.10;;;4.60;99.90;;;;;;5113784;28;20051;-69
2021/11/29 11:01:59;;;;;;;11.35;6.90;;;4.70;99.90;;;;;;5113430;28;20047;-69
2021/11/29 11:04:26;;;;;;;10.48;6.15;;;4.70;99.90;;;;;;5113689;28;20046;-70
2021/11/29 11:06:59;;;;;;;11.00;6.38;;;4.70;99.90;;;;;;5114554;28;20042;-69
2021/11/29 11:09:30;;;;;;;10.55;6.30;;;4.70;99.90;;;;;;5113530;28;20082;-69
2021/11/29 11:11:59;;;;;;;11.73;6.30;;;4.70;99.90;;;;;;5114479;28;20035;-69
2021/11/29 11:14:29;;;;;;;9.75;6.22;;;4.80;99.90;;;;;;5114204;28;20409;-69
2021/11/29 11:17:01;;;;;;;10.80;5.65;;;4.80;99.90;;;;;;5113144;27;20082;-68
2021/11/29 11:19:31;;;;;;;10.25;5.82;;;5.00;99.90;;;;;;5095799;28;20100;-69
2021/11/29 11:22:12;;;;;;;9.52;5.22;;;5.10;99.90;;;;;;5112928;28;20039;-69
2021/11/29 11:24:40;;;;;;;11.65;5.85;;;5.20;99.90;;;;;;5112977;28;20071;-69
2021/11/29 11:27:06;;;;;;;9.32;5.00;;;5.30;99.90;;;;;;5113784;28;20046;-68
2021/11/29 11:29:32;;;;;;;9.98;6.00;;;5.30;99.90;;;;;;5112971;28;20044;-68
2021/11/29 11:32:19;;;;;;;9.82;4.95;;;5.40;99.90;;;;;;5114516;28;20039;-68
2021/11/29 11:34:51;;;;;;;9.75;6.00;;;5.40;99.90;;;;;;5114090;28;20122;-68
2021/11/29 11:37:19;;;;;;;13.90;6.22;;;5.40;99.90;;;;;;5112682;28;20082;-69
2021/11/29 11:39:46;;;;;;;9.57;5.25;;;5.60;99.90;;;;;;5114343;28;20051;-69
2021/11/29 11:42:13;;;;;;;8.52;5.70;;;5.60;99.90;;;;;;5114344;28;20400;-68
2021/11/29 11:44:40;;;;;;;8.32;6.05;;;5.60;99.90;;;;;;5114048;28;20043;-68
2021/11/29 11:47:07;;;;;;;8.88;4.80;;;5.60;99.90;;;;;;5113575;28;20039;-68
2021/11/29 11:49:39;;;;;;;8.93;5.45;;;5.60;99.90;;;;;;5114101;28;20031;-69
2021/11/29 11:52:07;;;;;;;8.15;4.85;;;5.60;99.90;;;;;;5113928;28;20110;-68
2021/11/29 11:54:36;;;;;;;8.52;5.13;;;5.60;99.90;;;;;;5095547;28;20089;-69
2021/11/29 11:57:03;;;;;;;8.23;4.55;;;5.50;99.90;;;;;;5112221;27;20497;-69
2021/11/29 11:59:37;;;;;;;12.75;4.70;;;5.50;99.90;;;;;;5113030;28;20054;-69
2021/11/29 12:02:05;;;;;;;9.68;5.28;;;5.40;99.90;;;;;;5112809;28;20085;-69
2021/11/29 12:04:31;;;;;;;8.52;5.20;;;5.30;99.90;;;;;;5112838;28;20036;-69
2021/11/29 12:06:57;;;;;;;8.32;5.28;;;5.30;99.90;;;;;;5112434;28;20035;-69
2021/11/29 12:09:31;;;;;;;10.30;6.03;;;5.30;99.90;;;;;;5111364;28;20043;-69
2021/11/29 12:12:04;;;;;;;9.05;5.03;;;5.20;99.90;;;;;;5113644;28;20115;-69
2021/11/29 12:14:33;;;;;;;13.45;8.45;;;5.20;99.90;;;;;;5113614;28;20104;-69
2021/11/29 12:17:18;;;;;;;8.70;5.07;;;5.20;99.90;;;;;;5111925;28;20052;-69
2021/11/29 12:19:46;;;;;;;9.27;5.50;;;5.20;99.90;;;;;;5112425;28;20051;-69
2021/11/29 12:22:15;;;;;;;9.25;6.03;;;5.20;99.90;;;;;;5113412;28;20092;-69
2021/11/29 12:24:44;;;;;;;8.32;5.35;;;5.10;99.90;;;;;;5113505;28;20040;-69
2021/11/29 12:27:12;;;;;;;9.38;5.18;;;5.20;99.90;;;;;;5096254;28;20070;-69
2021/11/29 12:29:56;;;;;;;10.10;5.10;;;5.20;99.90;;;;;;5117857;28;20075;-69
2021/11/29 12:32:24;;;;;;;8.40;5.00;;;5.20;99.90;;;;;;5117768;28;20104;-69
2021/11/29 12:34:54;;;;;;;8.23;5.68;;;5.20;99.90;;;;;;5117420;28;20043;-69
2021/11/29 12:37:40;;;;;;;9.82;5.90;;;5.20;99.90;;;;;;5117261;28;20027;-69
2021/11/29 12:40:12;;;;;;;8.63;5.50;;;5.20;99.90;;;;;;5117963;28;20419;-67
2021/11/29 12:42:38;;;;;;;11.27;5.47;;;5.20;99.90;;;;;;5117007;27;20448;-66
2021/11/29 12:45:03;;;;;;;8.82;4.63;;;5.40;99.90;;;;;;5117322;28;20079;-69
2021/11/29 12:47:55;;;;;;;10.18;5.20;;;5.50;99.90;;;;;;5117000;28;20039;-66
2021/11/29 12:50:54;;;;;;;6.90;4.32;;;5.60;99.90;;;;;;5114314;28;20492;-66
2021/11/29 12:53:27;;;;;;;9.02;4.57;;;5.70;99.90;;;;;;5108566;28;20047;-67
2021/11/29 12:56:05;;;;;;;7.38;4.47;;;5.70;99.90;;;;;;5115636;28;20039;-66
2021/11/29 12:58:33;;;;;;;6.80;4.45;;;5.80;99.90;;;;;;5116874;28;20043;-66